Terminal Aerodrome Forecast
Issued by NWS

Home | Current Version | Previous Version | Text Only | Print | Product List | Glossary On
Versions: 1 2 3 4 5 6 7 8 9 10 11 12 13 14 15 16 17 18 19 20 21 22 23 24 25 26
000
FTUS43 KGRB 120238 AAA
TAFRHI
TAF AMD
KRHI 120238Z 1203/1224 35013G22KT P6SM -SHSN BKN018 OVC025
      TEMPO 1203/1207 2SM -SHSN BKN018
     FM120800 32009G18KT P6SM -SHSN BKN024
     FM121700 32010G17KT P6SM BKN028
     FM121900 32009KT P6SM BKN035=

USA.gov is the U.S. government's official web portal to all federal, state and local government web resources and services.